sensor_id;sensor_type;location;lat;lon;timestamp;P1;durP1;ratioP1;P2;durP2;ratioP2
21917;SDS011;11123;49.882;8.662;2022-12-18T00:01:42;29.10;;;11.30;;
21917;SDS011;11123;49.882;8.662;2022-12-18T00:04:15;63.65;;;12.50;;
21917;SDS011;11123;49.882;8.662;2022-12-18T00:06:48;28.98;;;10.73;;
21917;SDS011;11123;49.882;8.662;2022-12-18T00:09:19;46.67;;;11.70;;
21917;SDS011;11123;49.882;8.662;2022-12-18T00:11:50;32.22;;;11.00;;
21917;SDS011;11123;49.882;8.662;2022-12-18T00:14:21;26.15;;;10.57;;
21917;SDS011;11123;49.882;8.662;2022-12-18T00:16:50;28.60;;;11.93;;
21917;SDS011;11123;49.882;8.662;2022-12-18T00:19:19;33.85;;;11.07;;
21917;SDS011;11123;49.882;8.662;2022-12-18T00:21:48;44.85;;;11.10;;
21917;SDS011;11123;49.882;8.662;2022-12-18T00:24:17;38.92;;;11.52;;
21917;SDS011;11123;49.882;8.662;2022-12-18T00:26:46;31.13;;;11.05;;
21917;SDS011;11123;49.882;8.662;2022-12-18T00:29:18;37.03;;;10.95;;
21917;SDS011;11123;49.882;8.662;2022-12-18T00:31:49;30.95;;;10.60;;
21917;SDS011;11123;49.882;8.662;2022-12-18T00:34:18;29.75;;;10.27;;
21917;SDS011;11123;49.882;8.662;2022-12-18T00:36:47;67.38;;;12.98;;
21917;SDS011;11123;49.882;8.662;2022-12-18T00:39:16;42.08;;;12.88;;
21917;SDS011;11123;49.882;8.662;2022-12-18T00:41:45;41.80;;;12.05;;
21917;SDS011;11123;49.882;8.662;2022-12-18T00:44:33;42.50;;;12.73;;
21917;SDS011;11123;49.882;8.662;2022-12-18T00:47:07;37.60;;;11.23;;
21917;SDS011;11123;49.882;8.662;2022-12-18T00:49:36;31.95;;;10.75;;
21917;SDS011;11123;49.882;8.662;2022-12-18T00:52:06;37.05;;;11.98;;
21917;SDS011;11123;49.882;8.662;2022-12-18T00:54:37;29.30;;;11.77;;
21917;SDS011;11123;49.882;8.662;2022-12-18T00:59:46;36.35;;;11.60;;
21917;SDS011;11123;49.882;8.662;2022-12-18T01:02:19;35.72;;;12.55;;
21917;SDS011;11123;49.882;8.662;2022-12-18T01:04:48;34.40;;;12.80;;
21917;SDS011;11123;49.882;8.662;2022-12-18T01:07:20;37.67;;;11.77;;
21917;SDS011;11123;49.882;8.662;2022-12-18T01:09:49;31.75;;;12.07;;
21917;SDS011;11123;49.882;8.662;2022-12-18T01:12:19;37.80;;;12.95;;
21917;SDS011;11123;49.882;8.662;2022-12-18T01:14:49;34.28;;;12.02;;
21917;SDS011;11123;49.882;8.662;2022-12-18T01:17:21;37.67;;;11.43;;
21917;SDS011;11123;49.882;8.662;2022-12-18T01:19:50;33.75;;;11.35;;
21917;SDS011;11123;49.882;8.662;2022-12-18T01:22:37;28.33;;;11.18;;
21917;SDS011;11123;49.882;8.662;2022-12-18T01:25:07;41.75;;;12.25;;
21917;SDS011;11123;49.882;8.662;2022-12-18T01:27:36;40.00;;;13.65;;
21917;SDS011;11123;49.882;8.662;2022-12-18T01:30:05;40.65;;;12.68;;
21917;SDS011;11123;49.882;8.662;2022-12-18T01:32:38;40.80;;;12.48;;
21917;SDS011;11123;49.882;8.662;2022-12-18T01:35:08;36.60;;;12.68;;
21917;SDS011;11123;49.882;8.662;2022-12-18T01:37:37;33.03;;;11.43;;
21917;SDS011;11123;49.882;8.662;2022-12-18T01:40:07;38.70;;;11.45;;
21917;SDS011;11123;49.882;8.662;2022-12-18T01:42:36;36.63;;;11.27;;
21917;SDS011;11123;49.882;8.662;2022-12-18T01:45:06;37.40;;;12.07;;
21917;SDS011;11123;49.882;8.662;2022-12-18T01:47:54;38.67;;;12.13;;
21917;SDS011;11123;49.882;8.662;2022-12-18T01:50:27;35.47;;;12.07;;
21917;SDS011;11123;49.882;8.662;2022-12-18T01:53:00;37.10;;;11.60;;
21917;SDS011;11123;49.882;8.662;2022-12-18T01:55:35;48.08;;;11.20;;
21917;SDS011;11123;49.882;8.662;2022-12-18T01:58:08;33.30;;;12.18;;
21917;SDS011;11123;49.882;8.662;2022-12-18T02:00:37;38.38;;;11.05;;
21917;SDS011;11123;49.882;8.662;2022-12-18T02:03:08;30.75;;;11.70;;
21917;SDS011;11123;49.882;8.662;2022-12-18T02:05:40;34.80;;;11.35;;
21917;SDS011;11123;49.882;8.662;2022-12-18T02:08:17;63.10;;;12.15;;
21917;SDS011;11123;49.882;8.662;2022-12-18T02:10:54;30.77;;;10.40;;
21917;SDS011;11123;49.882;8.662;2022-12-18T02:13:32;49.38;;;12.15;;
21917;SDS011;11123;49.882;8.662;2022-12-18T02:16:09;30.48;;;11.30;;
21917;SDS011;11123;49.882;8.662;2022-12-18T02:18:47;37.40;;;10.60;;
21917;SDS011;11123;49.882;8.662;2022-12-18T02:21:21;31.88;;;10.60;;
21917;SDS011;11123;49.882;8.662;2022-12-18T02:23:56;38.42;;;11.07;;
21917;SDS011;11123;49.882;8.662;2022-12-18T02:26:40;44.63;;;11.50;;
21917;SDS011;11123;49.882;8.662;2022-12-18T02:29:15;28.70;;;10.98;;
21917;SDS011;11123;49.882;8.662;2022-12-18T02:31:52;27.27;;;9.15;;
21917;SDS011;11123;49.882;8.662;2022-12-18T02:34:25;26.52;;;9.27;;
21917;SDS011;11123;49.882;8.662;2022-12-18T02:36:59;26.50;;;9.65;;
21917;SDS011;11123;49.882;8.662;2022-12-18T02:39:36;25.65;;;9.18;;
21917;SDS011;11123;49.882;8.662;2022-12-18T02:42:10;25.63;;;9.27;;
21917;SDS011;11123;49.882;8.662;2022-12-18T02:44:43;22.92;;;10.07;;
21917;SDS011;11123;49.882;8.662;2022-12-18T02:47:17;25.63;;;9.00;;
21917;SDS011;11123;49.882;8.662;2022-12-18T02:49:52;23.95;;;8.60;;
21917;SDS011;11123;49.882;8.662;2022-12-18T02:52:31;20.02;;;8.85;;
21917;SDS011;11123;49.882;8.662;2022-12-18T02:55:13;16.23;;;7.18;;
21917;SDS011;11123;49.882;8.662;2022-12-18T02:58:02;17.05;;;7.60;;
21917;SDS011;11123;49.882;8.662;2022-12-18T03:00:41;16.42;;;7.13;;
21917;SDS011;11123;49.882;8.662;2022-12-18T03:03:18;15.88;;;6.85;;
21917;SDS011;11123;49.882;8.662;2022-12-18T03:05:55;16.70;;;6.57;;
21917;SDS011;11123;49.882;8.662;2022-12-18T03:08:28;17.70;;;8.07;;
21917;SDS011;11123;49.882;8.662;2022-12-18T03:11:01;15.73;;;7.15;;
21917;SDS011;11123;49.882;8.662;2022-12-18T03:13:34;18.20;;;7.65;;
21917;SDS011;11123;49.882;8.662;2022-12-18T03:16:10;19.85;;;7.40;;
21917;SDS011;11123;49.882;8.662;2022-12-18T03:18:45;14.80;;;6.47;;
21917;SDS011;11123;49.882;8.662;2022-12-18T03:21:36;16.65;;;7.05;;
21917;SDS011;11123;49.882;8.662;2022-12-18T03:24:44;15.32;;;6.80;;
21917;SDS011;11123;49.882;8.662;2022-12-18T03:27:23;15.32;;;6.90;;
21917;SDS011;11123;49.882;8.662;2022-12-18T03:30:00;15.65;;;7.32;;
21917;SDS011;11123;49.882;8.662;2022-12-18T03:32:38;16.73;;;7.22;;
21917;SDS011;11123;49.882;8.662;2022-12-18T03:35:12;15.23;;;6.40;;
21917;SDS011;11123;49.882;8.662;2022-12-18T03:37:45;14.20;;;6.88;;
21917;SDS011;11123;49.882;8.662;2022-12-18T03:40:14;14.30;;;6.57;;
21917;SDS011;11123;49.882;8.662;2022-12-18T03:42:45;14.07;;;6.10;;
21917;SDS011;11123;49.882;8.662;2022-12-18T03:45:22;16.80;;;6.38;;
21917;SDS011;11123;49.882;8.662;2022-12-18T03:47:58;15.73;;;6.57;;
21917;SDS011;11123;49.882;8.662;2022-12-18T03:50:37;17.85;;;6.95;;
21917;SDS011;11123;49.882;8.662;2022-12-18T03:53:18;13.07;;;5.82;;
21917;SDS011;11123;49.882;8.662;2022-12-18T03:55:54;14.27;;;6.70;;
21917;SDS011;11123;49.882;8.662;2022-12-18T03:58:31;14.73;;;6.28;;
21917;SDS011;11123;49.882;8.662;2022-12-18T04:01:15;11.93;;;5.28;;
21917;SDS011;11123;49.882;8.662;2022-12-18T04:03:47;17.00;;;6.75;;
21917;SDS011;11123;49.882;8.662;2022-12-18T04:06:21;14.43;;;5.50;;
21917;SDS011;11123;49.882;8.662;2022-12-18T04:08:51;17.10;;;7.22;;
21917;SDS011;11123;49.882;8.662;2022-12-18T04:14:35;16.35;;;6.53;;
21917;SDS011;11123;49.882;8.662;2022-12-18T04:17:22;12.60;;;6.10;;
21917;SDS011;11123;49.882;8.662;2022-12-18T04:19:52;13.05;;;6.63;;
21917;SDS011;11123;49.882;8.662;2022-12-18T04:22:30;13.05;;;6.40;;
21917;SDS011;11123;49.882;8.662;2022-12-18T04:24:59;13.25;;;6.85;;
21917;SDS011;11123;49.882;8.662;2022-12-18T04:27:48;10.57;;;5.88;;
21917;SDS011;11123;49.882;8.662;2022-12-18T04:30:17;13.98;;;6.53;;
21917;SDS011;11123;49.882;8.662;2022-12-18T04:32:48;11.73;;;5.47;;
21917;SDS011;11123;49.882;8.662;2022-12-18T04:35:22;15.98;;;6.25;;
21917;SDS011;11123;49.882;8.662;2022-12-18T04:37:52;12.10;;;5.95;;
21917;SDS011;11123;49.882;8.662;2022-12-18T04:40:20;13.40;;;6.78;;
21917;SDS011;11123;49.882;8.662;2022-12-18T04:42:53;14.25;;;5.28;;
21917;SDS011;11123;49.882;8.662;2022-12-18T04:45:21;16.30;;;6.63;;
21917;SDS011;11123;49.882;8.662;2022-12-18T04:47:52;13.38;;;5.82;;
21917;SDS011;11123;49.882;8.662;2022-12-18T04:50:21;13.82;;;5.97;;
21917;SDS011;11123;49.882;8.662;2022-12-18T04:52:50;12.40;;;5.35;;
21917;SDS011;11123;49.882;8.662;2022-12-18T04:55:21;12.73;;;4.93;;
21917;SDS011;11123;49.882;8.662;2022-12-18T04:58:08;10.30;;;5.70;;
21917;SDS011;11123;49.882;8.662;2022-12-18T05:00:37;16.38;;;5.90;;
21917;SDS011;11123;49.882;8.662;2022-12-18T05:03:09;9.35;;;5.45;;
21917;SDS011;11123;49.882;8.662;2022-12-18T05:05:40;12.88;;;6.13;;
21917;SDS011;11123;49.882;8.662;2022-12-18T05:08:14;14.90;;;6.05;;
21917;SDS011;11123;49.882;8.662;2022-12-18T05:11:22;11.10;;;5.72;;
21917;SDS011;11123;49.882;8.662;2022-12-18T05:14:30;10.90;;;5.28;;
21917;SDS011;11123;49.882;8.662;2022-12-18T05:17:21;14.60;;;5.75;;
21917;SDS011;11123;49.882;8.662;2022-12-18T05:20:21;15.82;;;5.80;;
21917;SDS011;11123;49.882;8.662;2022-12-18T05:23:22;14.25;;;6.60;;
21917;SDS011;11123;49.882;8.662;2022-12-18T05:26:22;11.23;;;5.55;;
21917;SDS011;11123;49.882;8.662;2022-12-18T05:28:52;13.48;;;5.60;;
21917;SDS011;11123;49.882;8.662;2022-12-18T05:31:26;12.85;;;5.82;;
21917;SDS011;11123;49.882;8.662;2022-12-18T05:37:02;13.38;;;6.15;;
21917;SDS011;11123;49.882;8.662;2022-12-18T05:39:34;11.18;;;5.30;;
21917;SDS011;11123;49.882;8.662;2022-12-18T05:42:07;14.90;;;6.13;;
21917;SDS011;11123;49.882;8.662;2022-12-18T05:44:45;13.55;;;5.78;;
21917;SDS011;11123;49.882;8.662;2022-12-18T05:47:15;14.30;;;5.72;;
21917;SDS011;11123;49.882;8.662;2022-12-18T05:49:44;13.23;;;5.57;;
21917;SDS011;11123;49.882;8.662;2022-12-18T05:52:24;11.32;;;5.47;;
21917;SDS011;11123;49.882;8.662;2022-12-18T05:54:56;15.73;;;6.20;;
21917;SDS011;11123;49.882;8.662;2022-12-18T05:57:38;15.75;;;6.15;;
21917;SDS011;11123;49.882;8.662;2022-12-18T06:00:08;9.45;;;4.97;;
21917;SDS011;11123;49.882;8.662;2022-12-18T06:02:48;9.55;;;5.60;;
21917;SDS011;11123;49.882;8.662;2022-12-18T06:05:35;13.35;;;5.63;;
21917;SDS011;11123;49.882;8.662;2022-12-18T06:08:08;17.05;;;6.22;;
21917;SDS011;11123;49.882;8.662;2022-12-18T06:10:49;11.95;;;5.15;;
21917;SDS011;11123;49.882;8.662;2022-12-18T06:13:30;15.90;;;5.68;;
21917;SDS011;11123;49.882;8.662;2022-12-18T06:16:01;11.18;;;5.47;;
21917;SDS011;11123;49.882;8.662;2022-12-18T06:18:41;11.07;;;5.65;;
21917;SDS011;11123;49.882;8.662;2022-12-18T06:21:42;15.27;;;5.05;;
21917;SDS011;11123;49.882;8.662;2022-12-18T06:25:00;14.50;;;5.10;;
21917;SDS011;11123;49.882;8.662;2022-12-18T06:27:49;13.90;;;5.85;;
21917;SDS011;11123;49.882;8.662;2022-12-18T06:33:04;13.68;;;6.50;;
21917;SDS011;11123;49.882;8.662;2022-12-18T06:35:37;13.45;;;5.45;;
21917;SDS011;11123;49.882;8.662;2022-12-18T06:38:07;12.18;;;6.22;;
21917;SDS011;11123;49.882;8.662;2022-12-18T06:41:02;15.30;;;5.68;;
21917;SDS011;11123;49.882;8.662;2022-12-18T06:43:39;12.77;;;5.03;;
21917;SDS011;11123;49.882;8.662;2022-12-18T06:46:09;12.27;;;5.43;;
21917;SDS011;11123;49.882;8.662;2022-12-18T06:48:40;13.20;;;5.80;;
21917;SDS011;11123;49.882;8.662;2022-12-18T06:51:09;14.35;;;5.95;;
21917;SDS011;11123;49.882;8.662;2022-12-18T06:53:57;12.35;;;5.57;;
21917;SDS011;11123;49.882;8.662;2022-12-18T06:56:31;11.82;;;5.93;;
21917;SDS011;11123;49.882;8.662;2022-12-18T06:59:42;11.82;;;5.18;;
21917;SDS011;11123;49.882;8.662;2022-12-18T07:01:53;14.65;;;6.45;;
21917;SDS011;11123;49.882;8.662;2022-12-18T07:04:27;13.95;;;6.30;;
21917;SDS011;11123;49.882;8.662;2022-12-18T07:06:56;14.98;;;6.35;;
21917;SDS011;11123;49.882;8.662;2022-12-18T07:09:28;11.40;;;5.90;;
21917;SDS011;11123;49.882;8.662;2022-12-18T07:12:11;12.05;;;5.78;;
21917;SDS011;11123;49.882;8.662;2022-12-18T07:14:42;13.23;;;5.45;;
21917;SDS011;11123;49.882;8.662;2022-12-18T07:17:17;11.23;;;5.60;;
21917;SDS011;11123;49.882;8.662;2022-12-18T07:19:51;14.55;;;5.68;;
21917;SDS011;11123;49.882;8.662;2022-12-18T07:22:31;12.50;;;5.65;;
21917;SDS011;11123;49.882;8.662;2022-12-18T07:29:15;13.30;;;5.15;;
21917;SDS011;11123;49.882;8.662;2022-12-18T07:31:59;11.18;;;4.75;;
21917;SDS011;11123;49.882;8.662;2022-12-18T07:38:42;15.40;;;7.20;;
21917;SDS011;11123;49.882;8.662;2022-12-18T07:41:53;11.95;;;6.00;;
21917;SDS011;11123;49.882;8.662;2022-12-18T07:44:51;11.55;;;5.47;;
21917;SDS011;11123;49.882;8.662;2022-12-18T07:47:21;11.32;;;5.82;;
21917;SDS011;11123;49.882;8.662;2022-12-18T07:50:08;12.52;;;5.93;;
21917;SDS011;11123;49.882;8.662;2022-12-18T07:59:52;12.43;;;5.93;;
21917;SDS011;11123;49.882;8.662;2022-12-18T08:02:39;12.98;;;6.78;;
21917;SDS011;11123;49.882;8.662;2022-12-18T08:05:59;18.88;;;7.30;;
21917;SDS011;11123;49.882;8.662;2022-12-18T08:09:14;12.70;;;6.90;;
21917;SDS011;11123;49.882;8.662;2022-12-18T08:11:49;16.25;;;6.53;;
21917;SDS011;11123;49.882;8.662;2022-12-18T08:20:11;17.23;;;7.55;;
21917;SDS011;11123;49.882;8.662;2022-12-18T08:23:08;15.02;;;6.40;;
21917;SDS011;11123;49.882;8.662;2022-12-18T08:25:55;18.38;;;6.93;;
21917;SDS011;11123;49.882;8.662;2022-12-18T08:32:21;16.33;;;6.70;;
21917;SDS011;11123;49.882;8.662;2022-12-18T08:34:59;18.27;;;8.07;;
21917;SDS011;11123;49.882;8.662;2022-12-18T08:37:31;17.60;;;7.40;;
21917;SDS011;11123;49.882;8.662;2022-12-18T08:40:11;15.30;;;7.20;;
21917;SDS011;11123;49.882;8.662;2022-12-18T08:42:47;14.02;;;6.88;;
21917;SDS011;11123;49.882;8.662;2022-12-18T08:46:54;15.65;;;6.65;;
21917;SDS011;11123;49.882;8.662;2022-12-18T08:50:04;18.70;;;6.30;;
21917;SDS011;11123;49.882;8.662;2022-12-18T08:52:36;17.05;;;7.88;;
21917;SDS011;11123;49.882;8.662;2022-12-18T08:55:10;14.00;;;6.55;;
21917;SDS011;11123;49.882;8.662;2022-12-18T08:58:10;20.17;;;8.50;;
21917;SDS011;11123;49.882;8.662;2022-12-18T09:01:41;20.75;;;8.02;;
21917;SDS011;11123;49.882;8.662;2022-12-18T09:04:35;17.15;;;8.52;;
21917;SDS011;11123;49.882;8.662;2022-12-18T09:07:08;19.80;;;8.93;;
21917;SDS011;11123;49.882;8.662;2022-12-18T09:09:46;17.85;;;8.82;;
21917;SDS011;11123;49.882;8.662;2022-12-18T09:16:19;16.73;;;8.02;;
21917;SDS011;11123;49.882;8.662;2022-12-18T10:02:39;49.70;;;23.65;;
21917;SDS011;11123;49.882;8.662;2022-12-18T10:16:33;30.33;;;13.98;;
21917;SDS011;11123;49.882;8.662;2022-12-18T10:19:28;32.28;;;14.75;;
21917;SDS011;11123;49.882;8.662;2022-12-18T10:26:53;28.65;;;13.73;;
21917;SDS011;11123;49.882;8.662;2022-12-18T10:30:14;29.60;;;12.88;;
21917;SDS011;11123;49.882;8.662;2022-12-18T10:33:16;31.20;;;15.80;;
21917;SDS011;11123;49.882;8.662;2022-12-18T10:37:05;28.80;;;15.32;;
21917;SDS011;11123;49.882;8.662;2022-12-18T10:40:13;31.42;;;14.98;;
21917;SDS011;11123;49.882;8.662;2022-12-18T10:47:17;30.83;;;15.30;;
21917;SDS011;11123;49.882;8.662;2022-12-18T10:54:45;36.65;;;16.52;;
21917;SDS011;11123;49.882;8.662;2022-12-18T10:58:37;32.88;;;14.60;;
21917;SDS011;11123;49.882;8.662;2022-12-18T11:08:33;32.35;;;17.30;;
21917;SDS011;11123;49.882;8.662;2022-12-18T11:11:18;32.50;;;16.27;;
21917;SDS011;11123;49.882;8.662;2022-12-18T11:18:22;31.48;;;16.60;;
21917;SDS011;11123;49.882;8.662;2022-12-18T11:21:10;32.72;;;16.58;;
21917;SDS011;11123;49.882;8.662;2022-12-18T11:24:00;38.72;;;18.05;;
21917;SDS011;11123;49.882;8.662;2022-12-18T11:26:34;36.03;;;17.50;;
21917;SDS011;11123;49.882;8.662;2022-12-18T11:32:20;32.88;;;17.17;;
21917;SDS011;11123;49.882;8.662;2022-12-18T11:35:56;33.60;;;17.02;;
21917;SDS011;11123;49.882;8.662;2022-12-18T11:39:55;35.50;;;18.25;;
21917;SDS011;11123;49.882;8.662;2022-12-18T11:42:37;39.40;;;19.15;;
21917;SDS011;11123;49.882;8.662;2022-12-18T11:45:34;40.15;;;18.88;;
21917;SDS011;11123;49.882;8.662;2022-12-18T11:48:49;40.35;;;17.90;;
21917;SDS011;11123;49.882;8.662;2022-12-18T11:54:54;37.63;;;17.48;;
21917;SDS011;11123;49.882;8.662;2022-12-18T12:00:47;36.78;;;17.65;;
21917;SDS011;11123;49.882;8.662;2022-12-18T12:04:21;39.92;;;18.38;;
21917;SDS011;11123;49.882;8.662;2022-12-18T12:07:21;34.60;;;17.30;;
21917;SDS011;11123;49.882;8.662;2022-12-18T12:12:00;40.20;;;18.92;;
21917;SDS011;11123;49.882;8.662;2022-12-18T12:14:29;38.22;;;18.55;;
21917;SDS011;11123;49.882;8.662;2022-12-18T12:17:11;40.85;;;19.00;;
21917;SDS011;11123;49.882;8.662;2022-12-18T12:20:39;49.85;;;21.88;;
21917;SDS011;11123;49.882;8.662;2022-12-18T12:30:44;40.42;;;19.15;;
21917;SDS011;11123;49.882;8.662;2022-12-18T12:32:49;39.40;;;17.83;;
21917;SDS011;11123;49.882;8.662;2022-12-18T12:40:24;38.70;;;18.38;;
21917;SDS011;11123;49.882;8.662;2022-12-18T12:47:04;43.63;;;21.05;;
21917;SDS011;11123;49.882;8.662;2022-12-18T12:50:40;43.22;;;18.83;;
21917;SDS011;11123;49.882;8.662;2022-12-18T12:54:33;41.20;;;17.92;;
21917;SDS011;11123;49.882;8.662;2022-12-18T12:57:21;42.80;;;19.05;;
21917;SDS011;11123;49.882;8.662;2022-12-18T13:04:06;47.38;;;19.55;;
21917;SDS011;11123;49.882;8.662;2022-12-18T13:10:44;41.95;;;18.20;;
21917;SDS011;11123;49.882;8.662;2022-12-18T13:14:43;46.28;;;20.20;;
21917;SDS011;11123;49.882;8.662;2022-12-18T13:20:24;47.90;;;19.58;;
21917;SDS011;11123;49.882;8.662;2022-12-18T13:23:44;45.42;;;19.92;;
21917;SDS011;11123;49.882;8.662;2022-12-18T13:26:57;45.95;;;19.35;;
21917;SDS011;11123;49.882;8.662;2022-12-18T13:43:45;45.13;;;19.75;;
21917;SDS011;11123;49.882;8.662;2022-12-18T13:46:17;50.33;;;20.10;;
21917;SDS011;11123;49.882;8.662;2022-12-18T13:49:00;44.85;;;20.15;;
21917;SDS011;11123;49.882;8.662;2022-12-18T13:55:07;42.45;;;20.23;;
21917;SDS011;11123;49.882;8.662;2022-12-18T13:57:47;44.58;;;19.70;;
21917;SDS011;11123;49.882;8.662;2022-12-18T14:00:40;47.83;;;20.08;;
21917;SDS011;11123;49.882;8.662;2022-12-18T14:04:22;43.30;;;17.95;;
21917;SDS011;11123;49.882;8.662;2022-12-18T14:07:55;42.38;;;20.23;;
21917;SDS011;11123;49.882;8.662;2022-12-18T14:10:30;45.67;;;18.73;;
21917;SDS011;11123;49.882;8.662;2022-12-18T14:13:52;48.05;;;18.77;;
21917;SDS011;11123;49.882;8.662;2022-12-18T14:19:17;45.33;;;19.80;;
21917;SDS011;11123;49.882;8.662;2022-12-18T14:21:50;44.78;;;19.52;;
21917;SDS011;11123;49.882;8.662;2022-12-18T14:24:27;46.17;;;18.75;;
21917;SDS011;11123;49.882;8.662;2022-12-18T14:27:11;50.88;;;20.13;;
21917;SDS011;11123;49.882;8.662;2022-12-18T14:29:51;52.28;;;20.25;;
21917;SDS011;11123;49.882;8.662;2022-12-18T14:32:28;44.88;;;19.58;;
21917;SDS011;11123;49.882;8.662;2022-12-18T14:35:12;45.83;;;19.98;;
21917;SDS011;11123;49.882;8.662;2022-12-18T14:37:45;44.05;;;19.73;;
21917;SDS011;11123;49.882;8.662;2022-12-18T14:40:19;47.75;;;19.67;;
21917;SDS011;11123;49.882;8.662;2022-12-18T14:42:52;50.45;;;20.98;;
21917;SDS011;11123;49.882;8.662;2022-12-18T14:45:35;47.72;;;20.17;;
21917;SDS011;11123;49.882;8.662;2022-12-18T14:48:12;65.32;;;26.85;;
21917;SDS011;11123;49.882;8.662;2022-12-18T14:50:57;53.55;;;24.02;;
21917;SDS011;11123;49.882;8.662;2022-12-18T14:53:33;48.28;;;20.77;;
21917;SDS011;11123;49.882;8.662;2022-12-18T14:56:15;48.63;;;20.48;;
21917;SDS011;11123;49.882;8.662;2022-12-18T14:58:49;44.75;;;19.77;;
21917;SDS011;11123;49.882;8.662;2022-12-18T15:01:55;46.78;;;20.42;;
21917;SDS011;11123;49.882;8.662;2022-12-18T15:04:32;45.90;;;20.17;;
21917;SDS011;11123;49.882;8.662;2022-12-18T15:07:05;49.67;;;21.27;;
21917;SDS011;11123;49.882;8.662;2022-12-18T15:09:41;47.83;;;20.10;;
21917;SDS011;11123;49.882;8.662;2022-12-18T15:12:26;46.45;;;20.05;;
21917;SDS011;11123;49.882;8.662;2022-12-18T15:15:01;45.63;;;19.65;;
21917;SDS011;11123;49.882;8.662;2022-12-18T15:17:30;49.20;;;19.67;;
21917;SDS011;11123;49.882;8.662;2022-12-18T15:20:03;43.47;;;19.33;;
21917;SDS011;11123;49.882;8.662;2022-12-18T15:22:38;51.67;;;20.88;;
21917;SDS011;11123;49.882;8.662;2022-12-18T15:25:21;47.38;;;21.17;;
21917;SDS011;11123;49.882;8.662;2022-12-18T15:27:54;45.72;;;19.35;;
21917;SDS011;11123;49.882;8.662;2022-12-18T15:30:23;49.28;;;20.50;;
21917;SDS011;11123;49.882;8.662;2022-12-18T15:36:04;45.63;;;20.90;;
21917;SDS011;11123;49.882;8.662;2022-12-18T15:38:38;46.42;;;20.15;;
21917;SDS011;11123;49.882;8.662;2022-12-18T15:41:11;42.83;;;19.02;;
21917;SDS011;11123;49.882;8.662;2022-12-18T15:43:51;43.90;;;18.55;;
21917;SDS011;11123;49.882;8.662;2022-12-18T15:46:21;45.83;;;19.75;;
21917;SDS011;11123;49.882;8.662;2022-12-18T15:48:53;45.00;;;19.73;;
21917;SDS011;11123;49.882;8.662;2022-12-18T15:51:31;41.05;;;18.23;;
21917;SDS011;11123;49.882;8.662;2022-12-18T15:54:02;41.05;;;18.98;;
21917;SDS011;11123;49.882;8.662;2022-12-18T15:56:34;46.28;;;19.77;;
21917;SDS011;11123;49.882;8.662;2022-12-18T15:59:20;45.95;;;19.70;;
21917;SDS011;11123;49.882;8.662;2022-12-18T16:01:51;46.20;;;20.40;;
21917;SDS011;11123;49.882;8.662;2022-12-18T16:04:21;47.90;;;19.92;;
21917;SDS011;11123;49.882;8.662;2022-12-18T16:06:53;44.30;;;19.40;;
21917;SDS011;11123;49.882;8.662;2022-12-18T16:09:40;42.65;;;18.40;;
21917;SDS011;11123;49.882;8.662;2022-12-18T16:12:14;44.75;;;19.20;;
21917;SDS011;11123;49.882;8.662;2022-12-18T16:14:47;42.03;;;19.00;;
21917;SDS011;11123;49.882;8.662;2022-12-18T16:17:18;44.35;;;19.60;;
21917;SDS011;11123;49.882;8.662;2022-12-18T16:19:47;45.38;;;19.27;;
21917;SDS011;11123;49.882;8.662;2022-12-18T16:22:21;46.80;;;21.27;;
21917;SDS011;11123;49.882;8.662;2022-12-18T16:24:52;49.10;;;20.17;;
21917;SDS011;11123;49.882;8.662;2022-12-18T16:27:23;50.65;;;20.60;;
21917;SDS011;11123;49.882;8.662;2022-12-18T16:29:53;46.83;;;20.85;;
21917;SDS011;11123;49.882;8.662;2022-12-18T16:32:22;47.80;;;19.15;;
21917;SDS011;11123;49.882;8.662;2022-12-18T16:37:00;46.90;;;19.98;;
21917;SDS011;11123;49.882;8.662;2022-12-18T16:38:54;45.30;;;20.13;;
21917;SDS011;11123;49.882;8.662;2022-12-18T16:41:23;47.22;;;19.80;;
21917;SDS011;11123;49.882;8.662;2022-12-18T16:43:58;47.05;;;19.63;;
21917;SDS011;11123;49.882;8.662;2022-12-18T16:46:28;46.92;;;19.92;;
21917;SDS011;11123;49.882;8.662;2022-12-18T16:49:00;49.67;;;20.48;;
21917;SDS011;11123;49.882;8.662;2022-12-18T16:51:30;47.80;;;19.83;;
21917;SDS011;11123;49.882;8.662;2022-12-18T16:54:03;51.28;;;20.85;;
21917;SDS011;11123;49.882;8.662;2022-12-18T16:56:38;47.20;;;20.33;;
21917;SDS011;11123;49.882;8.662;2022-12-18T16:59:09;47.70;;;19.13;;
21917;SDS011;11123;49.882;8.662;2022-12-18T17:01:39;43.30;;;18.88;;
21917;SDS011;11123;49.882;8.662;2022-12-18T17:04:10;44.75;;;19.73;;
21917;SDS011;11123;49.882;8.662;2022-12-18T17:06:40;43.92;;;19.92;;
21917;SDS011;11123;49.882;8.662;2022-12-18T17:09:14;44.38;;;19.58;;
21917;SDS011;11123;49.882;8.662;2022-12-18T17:11:44;45.45;;;19.80;;
21917;SDS011;11123;49.882;8.662;2022-12-18T17:14:14;44.92;;;21.30;;
21917;SDS011;11123;49.882;8.662;2022-12-18T17:16:45;47.92;;;20.45;;
21917;SDS011;11123;49.882;8.662;2022-12-18T17:19:35;46.40;;;20.30;;
21917;SDS011;11123;49.882;8.662;2022-12-18T17:22:04;46.00;;;20.05;;
21917;SDS011;11123;49.882;8.662;2022-12-18T17:24:35;44.88;;;19.02;;
21917;SDS011;11123;49.882;8.662;2022-12-18T17:27:04;46.72;;;18.92;;
21917;SDS011;11123;49.882;8.662;2022-12-18T17:29:34;43.53;;;19.13;;
21917;SDS011;11123;49.882;8.662;2022-12-18T17:32:13;47.00;;;19.98;;
21917;SDS011;11123;49.882;8.662;2022-12-18T17:34:42;44.50;;;20.42;;
21917;SDS011;11123;49.882;8.662;2022-12-18T17:37:11;44.63;;;19.88;;
21917;SDS011;11123;49.882;8.662;2022-12-18T17:39:42;49.03;;;20.30;;
21917;SDS011;11123;49.882;8.662;2022-12-18T17:42:11;43.00;;;19.58;;
21917;SDS011;11123;49.882;8.662;2022-12-18T17:44:42;48.45;;;21.30;;
21917;SDS011;11123;49.882;8.662;2022-12-18T17:47:11;46.22;;;18.73;;
21917;SDS011;11123;49.882;8.662;2022-12-18T17:49:40;45.28;;;19.00;;
21917;SDS011;11123;49.882;8.662;2022-12-18T17:52:09;45.50;;;18.52;;
21917;SDS011;11123;49.882;8.662;2022-12-18T17:54:38;40.80;;;18.92;;
21917;SDS011;11123;49.882;8.662;2022-12-18T17:57:09;44.30;;;19.42;;
21917;SDS011;11123;49.882;8.662;2022-12-18T17:59:38;45.10;;;19.02;;
21917;SDS011;11123;49.882;8.662;2022-12-18T18:02:08;43.25;;;19.10;;
21917;SDS011;11123;49.882;8.662;2022-12-18T18:04:38;47.42;;;19.60;;
21917;SDS011;11123;49.882;8.662;2022-12-18T18:07:07;39.92;;;18.92;;
21917;SDS011;11123;49.882;8.662;2022-12-18T18:09:37;47.13;;;19.17;;
21917;SDS011;11123;49.882;8.662;2022-12-18T18:12:07;46.13;;;20.73;;
21917;SDS011;11123;49.882;8.662;2022-12-18T18:14:55;43.70;;;19.10;;
21917;SDS011;11123;49.882;8.662;2022-12-18T18:17:24;43.75;;;18.83;;
21917;SDS011;11123;49.882;8.662;2022-12-18T18:19:53;47.30;;;20.35;;
21917;SDS011;11123;49.882;8.662;2022-12-18T18:22:22;45.97;;;20.63;;
21917;SDS011;11123;49.882;8.662;2022-12-18T18:24:51;44.08;;;20.30;;
21917;SDS011;11123;49.882;8.662;2022-12-18T18:27:22;46.88;;;20.50;;
21917;SDS011;11123;49.882;8.662;2022-12-18T18:29:52;42.35;;;18.63;;
21917;SDS011;11123;49.882;8.662;2022-12-18T18:32:21;38.95;;;18.77;;
21917;SDS011;11123;49.882;8.662;2022-12-18T18:34:50;43.08;;;18.85;;
21917;SDS011;11123;49.882;8.662;2022-12-18T18:37:19;39.95;;;18.08;;
21917;SDS011;11123;49.882;8.662;2022-12-18T18:39:48;48.00;;;20.92;;
21917;SDS011;11123;49.882;8.662;2022-12-18T18:42:17;51.03;;;20.40;;
21917;SDS011;11123;49.882;8.662;2022-12-18T18:44:47;41.88;;;18.70;;